Time;durP1;ratioP1;P1;durP2;ratioP2;P2;SDS_P1;SDS_P2;PMS_P1;PMS_P2;Temp;Humidity;BMP_temperature;BMP_pressure;BME280_temperature;BME280_humidity;BME280_pressure;Samples;Min_cycle;Max_cycle;Signal;HPM_P1;HPM_P2
2023/02/05 00:01:28;;;;;;;2.63;1.63;;;1.40;99.90;;;;;;6271010;22;20435;-57
2023/02/05 00:03:54;;;;;;;2.33;1.47;;;1.30;99.90;;;;;;6270754;23;20399;-57
2023/02/05 00:06:25;;;;;;;3.97;1.77;;;1.30;99.90;;;;;;6271115;23;20411;-56
2023/02/05 00:08:52;;;;;;;5.80;2.10;;;1.30;99.90;;;;;;6272003;23;20396;-56
2023/02/05 00:11:22;;;;;;;1.73;1.23;;;1.30;99.90;;;;;;6272706;23;20387;-51
2023/02/05 00:13:50;;;;;;;3.93;2.50;;;1.30;99.90;;;;;;6272391;23;20423;-54
2023/02/05 00:16:19;;;;;;;1.80;1.53;;;1.30;99.90;;;;;;6272983;23;20411;-56
2023/02/05 00:18:47;;;;;;;2.97;1.90;;;1.20;99.90;;;;;;6273069;23;20593;-54
2023/02/05 00:21:15;;;;;;;2.37;1.70;;;1.20;99.90;;;;;;6272622;23;20395;-55
2023/02/05 00:23:41;;;;;;;2.20;1.73;;;1.20;99.90;;;;;;6272373;23;20423;-57
2023/02/05 00:26:13;;;;;;;2.67;1.43;;;1.20;99.90;;;;;;6272389;23;20415;-52
2023/02/05 00:28:43;;;;;;;2.00;1.50;;;1.20;99.90;;;;;;6272655;23;20403;-56
2023/02/05 00:31:13;;;;;;;2.67;2.23;;;1.20;99.90;;;;;;6272940;23;20390;-54
2023/02/05 00:33:40;;;;;;;2.70;1.63;;;1.10;99.90;;;;;;6272837;23;20427;-55
2023/02/05 00:36:08;;;;;;;2.43;1.77;;;1.10;99.90;;;;;;6273398;23;20410;-57
2023/02/05 00:38:35;;;;;;;4.27;3.43;;;1.10;99.90;;;;;;6273194;23;20454;-54
2023/02/05 00:41:03;;;;;;;9.10;2.57;;;1.10;99.90;;;;;;6273766;23;20397;-56
2023/02/05 00:43:30;;;;;;;3.10;1.97;;;1.10;99.90;;;;;;6272940;23;20423;-55
2023/02/05 00:46:01;;;;;;;1.90;1.70;;;1.10;99.90;;;;;;6273307;23;20417;-54
2023/02/05 00:48:29;;;;;;;5.27;1.77;;;1.10;99.90;;;;;;6273583;23;20430;-55
2023/02/05 00:50:56;;;;;;;3.23;2.70;;;1.10;99.90;;;;;;6273654;22;20403;-53
2023/02/05 00:53:24;;;;;;;4.33;2.60;;;1.20;99.90;;;;;;6273531;23;20411;-53
2023/02/05 00:55:51;;;;;;;3.30;2.20;;;1.20;99.90;;;;;;6273081;23;20413;-52
2023/02/05 00:58:21;;;;;;;4.47;1.83;;;1.20;99.90;;;;;;6273035;23;20447;-57
2023/02/05 01:00:49;;;;;;;2.53;1.77;;;1.20;99.90;;;;;;6273314;23;20411;-58
2023/02/05 01:03:16;;;;;;;2.13;1.60;;;1.20;99.90;;;;;;6273133;22;20417;-54
2023/02/05 01:05:47;;;;;;;3.03;1.97;;;1.10;99.90;;;;;;6273146;22;20414;-55
2023/02/05 01:08:15;;;;;;;3.33;2.20;;;1.10;99.90;;;;;;6273552;23;20407;-56
2023/02/05 01:10:44;;;;;;;3.90;1.70;;;1.10;99.90;;;;;;6272884;22;20399;-56
2023/02/05 01:13:13;;;;;;;2.47;1.67;;;1.10;99.90;;;;;;6272867;23;20407;-57
2023/02/05 01:15:40;;;;;;;3.40;1.90;;;1.10;99.90;;;;;;6272848;23;20407;-58
2023/02/05 01:18:07;;;;;;;5.50;2.03;;;1.10;99.90;;;;;;6273092;23;20434;-53
2023/02/05 01:20:36;;;;;;;6.80;2.37;;;1.00;99.90;;;;;;6272438;23;20395;-57
2023/02/05 01:23:08;;;;;;;2.77;1.70;;;1.00;99.90;;;;;;6272619;23;20430;-56
2023/02/05 01:25:37;;;;;;;2.93;1.60;;;0.90;99.90;;;;;;6272434;23;20395;-59
2023/02/05 01:28:05;;;;;;;4.47;2.43;;;0.90;99.90;;;;;;6271929;22;20446;-52
2023/02/05 01:30:32;;;;;;;5.53;2.77;;;0.80;99.90;;;;;;6272906;23;20375;-56
2023/02/05 01:32:59;;;;;;;5.50;2.07;;;0.80;99.90;;;;;;6272579;23;20388;-58
2023/02/05 01:35:26;;;;;;;4.47;3.00;;;0.70;99.90;;;;;;6272828;23;20387;-56
2023/02/05 01:37:55;;;;;;;6.10;2.40;;;0.70;99.90;;;;;;6272448;23;20406;-60
2023/02/05 01:40:23;;;;;;;4.07;2.00;;;0.60;99.90;;;;;;6271613;23;20864;-55
2023/02/05 01:42:50;;;;;;;2.93;1.67;;;0.50;99.90;;;;;;6271698;23;20395;-57
2023/02/05 01:45:50;;;;;;;5.87;3.20;;;0.50;99.90;;;;;;6271185;23;20415;-59
2023/02/05 01:48:20;;;;;;;3.07;1.77;;;0.40;99.90;;;;;;6271343;23;20518;-59
2023/02/05 01:50:51;;;;;;;6.93;1.90;;;0.40;99.90;;;;;;6271935;23;20462;-55
2023/02/05 01:53:23;;;;;;;3.30;1.77;;;0.30;99.90;;;;;;6271358;23;20423;-57
2023/02/05 01:55:54;;;;;;;1.90;1.67;;;0.30;99.90;;;;;;6271815;23;20386;-59
2023/02/05 01:58:22;;;;;;;4.20;1.70;;;0.30;99.90;;;;;;6271235;23;20418;-59
2023/02/05 02:00:49;;;;;;;1.57;1.47;;;0.30;99.90;;;;;;6271427;23;20398;-57
2023/02/05 02:03:16;;;;;;;3.80;1.90;;;0.20;99.90;;;;;;6271145;23;20414;-55
2023/02/05 02:05:43;;;;;;;4.40;2.13;;;0.20;99.90;;;;;;6271708;23;20379;-56
2023/02/05 02:08:12;;;;;;;3.37;2.33;;;0.30;99.90;;;;;;6271319;23;20411;-55
2023/02/05 02:10:41;;;;;;;4.37;1.80;;;0.30;99.90;;;;;;6271854;23;20399;-58
2023/02/05 02:13:13;;;;;;;3.87;2.03;;;0.30;99.90;;;;;;6271169;23;20418;-57
2023/02/05 02:15:40;;;;;;;2.60;1.50;;;0.30;99.90;;;;;;6272092;23;20391;-58
2023/02/05 02:18:26;;;;;;;3.33;2.13;;;0.20;99.90;;;;;;6271923;23;20414;-58
2023/02/05 02:21:14;;;;;;;1.80;1.23;;;0.20;99.90;;;;;;6271710;23;20418;-56
2023/02/05 02:23:57;;;;;;;4.50;2.50;;;0.10;99.90;;;;;;6265993;23;20415;-57
2023/02/05 02:26:39;;;;;;;3.10;1.60;;;0.00;99.90;;;;;;6271327;23;20383;-57
2023/02/05 02:29:11;;;;;;;2.40;1.50;;;0.00;99.90;;;;;;6271468;23;20423;-56
2023/02/05 02:31:43;;;;;;;4.13;2.20;;;0.10;99.90;;;;;;6271255;23;20383;-55
2023/02/05 02:34:17;;;;;;;2.57;2.17;;;0.10;99.90;;;;;;6271207;23;20427;-58
2023/02/05 02:36:54;;;;;;;2.30;2.10;;;0.00;99.90;;;;;;6271105;23;20410;-59
2023/02/05 02:39:26;;;;;;;5.10;2.20;;;0.00;99.90;;;;;;6271235;23;20447;-57
2023/02/05 02:41:56;;;;;;;5.33;1.97;;;-0.10;99.90;;;;;;6271397;23;20368;-55
2023/02/05 02:44:33;;;;;;;7.27;2.30;;;-0.20;99.90;;;;;;6271010;23;20435;-57
2023/02/05 02:47:06;;;;;;;5.50;2.43;;;-0.20;99.90;;;;;;6271255;23;20391;-58
2023/02/05 02:49:38;;;;;;;5.73;2.80;;;-0.30;99.90;;;;;;6270723;23;20411;-58
2023/02/05 02:52:08;;;;;;;2.70;2.00;;;-0.30;99.90;;;;;;6271226;23;20415;-55
2023/02/05 02:54:37;;;;;;;2.90;1.90;;;-0.30;99.90;;;;;;6271536;23;20436;-58
2023/02/05 02:57:08;;;;;;;4.33;3.03;;;-0.30;99.90;;;;;;6271356;23;20407;-58
2023/02/05 02:59:39;;;;;;;2.73;2.03;;;-0.30;99.90;;;;;;6271083;23;20454;-59
2023/02/05 03:02:11;;;;;;;6.03;2.10;;;-0.40;99.90;;;;;;6271457;23;20387;-54
2023/02/05 03:04:39;;;;;;;5.63;2.80;;;-0.40;99.90;;;;;;6271285;23;20431;-58
2023/02/05 03:07:14;;;;;;;7.07;3.27;;;-0.40;99.90;;;;;;6271516;23;20414;-59
2023/02/05 03:09:50;;;;;;;3.43;2.90;;;-0.40;99.90;;;;;;6271514;23;20418;-57
2023/02/05 03:12:18;;;;;;;3.90;2.97;;;-0.50;99.90;;;;;;6271285;23;20383;-55
2023/02/05 03:14:46;;;;;;;4.70;2.83;;;-0.50;99.90;;;;;;6271178;23;20438;-56
2023/02/05 03:17:17;;;;;;;4.43;2.20;;;-0.60;99.90;;;;;;6271072;23;20830;-58
2023/02/05 03:19:45;;;;;;;3.43;2.73;;;-0.60;99.90;;;;;;6271462;23;20477;-54
2023/02/05 03:22:15;;;;;;;6.27;2.77;;;-0.60;99.90;;;;;;6271344;23;20391;-57
2023/02/05 03:24:41;;;;;;;4.80;2.70;;;-0.60;99.90;;;;;;6271274;23;20423;-54
2023/02/05 03:27:11;;;;;;;2.13;1.70;;;-0.50;99.90;;;;;;6271257;23;20449;-58
2023/02/05 03:29:43;;;;;;;2.97;2.40;;;-0.50;99.90;;;;;;6271299;23;20450;-53
2023/02/05 03:32:23;;;;;;;7.13;2.57;;;-0.60;99.90;;;;;;6271622;23;20375;-55
2023/02/05 03:35:01;;;;;;;3.63;2.47;;;-0.60;99.90;;;;;;6271239;23;20422;-54
2023/02/05 03:37:41;;;;;;;4.60;2.50;;;-0.60;99.90;;;;;;6271803;23;20391;-55
2023/02/05 03:40:17;;;;;;;4.77;2.20;;;-0.60;99.90;;;;;;6270568;23;20443;-58
2023/02/05 03:42:52;;;;;;;6.10;2.17;;;-0.60;99.90;;;;;;6271173;23;20384;-57
2023/02/05 03:45:25;;;;;;;3.90;3.53;;;-0.70;99.90;;;;;;6270812;23;20407;-54
2023/02/05 03:48:12;;;;;;;5.17;2.97;;;-0.70;99.90;;;;;;6271187;23;20395;-57
2023/02/05 03:50:44;;;;;;;2.13;1.80;;;-0.60;99.90;;;;;;6271036;23;20434;-56
2023/02/05 03:53:17;;;;;;;5.40;3.30;;;-0.60;99.90;;;;;;6270811;23;20386;-58
2023/02/05 03:55:49;;;;;;;3.90;2.50;;;-0.50;99.90;;;;;;6270458;23;20438;-57
2023/02/05 03:58:22;;;;;;;3.83;2.80;;;-0.50;99.90;;;;;;6270515;23;20375;-56
2023/02/05 04:00:49;;;;;;;3.63;2.43;;;-0.50;99.90;;;;;;6270364;23;20427;-60
2023/02/05 04:03:17;;;;;;;3.27;2.60;;;-0.50;99.90;;;;;;6270710;23;20410;-55
2023/02/05 04:05:44;;;;;;;12.43;2.00;;;-0.50;99.90;;;;;;6270526;23;20411;-55
2023/02/05 04:08:11;;;;;;;2.90;2.47;;;-0.40;99.90;;;;;;6271084;23;20411;-58
2023/02/05 04:10:38;;;;;;;4.40;1.60;;;-0.40;99.90;;;;;;6270932;23;20458;-56
2023/02/05 04:13:04;;;;;;;5.03;2.60;;;-0.40;99.90;;;;;;6270660;23;20416;-54
2023/02/05 04:15:31;;;;;;;10.27;1.90;;;-0.40;99.90;;;;;;6270611;23;20407;-57
2023/02/05 04:18:00;;;;;;;4.20;2.30;;;-0.40;99.90;;;;;;6270196;23;20403;-55
2023/02/05 04:20:28;;;;;;;3.27;2.30;;;-0.50;99.90;;;;;;6270894;23;20447;-59
2023/02/05 04:22:55;;;;;;;5.47;3.03;;;-0.40;99.90;;;;;;6270946;23;20379;-55
2023/02/05 04:25:27;;;;;;;4.90;2.50;;;-0.40;99.90;;;;;;6270865;23;20463;-56
2023/02/05 04:27:57;;;;;;;4.27;2.70;;;-0.40;99.90;;;;;;6270338;23;20394;-59
2023/02/05 04:30:24;;;;;;;3.87;2.00;;;-0.40;99.90;;;;;;6271297;23;20399;-57
2023/02/05 04:32:54;;;;;;;1.67;1.40;;;-0.30;99.90;;;;;;6271101;23;20399;-57
2023/02/05 04:35:20;;;;;;;2.60;2.40;;;-0.40;99.90;;;;;;6270860;23;20403;-55
2023/02/05 04:37:53;;;;;;;1.80;1.47;;;-0.40;99.90;;;;;;6270700;23;20387;-57
2023/02/05 04:40:22;;;;;;;7.20;2.07;;;-0.40;99.90;;;;;;6270693;23;20455;-55
2023/02/05 04:42:49;;;;;;;3.73;2.20;;;-0.30;99.90;;;;;;6270965;23;20383;-56
2023/02/05 04:45:16;;;;;;;4.30;2.13;;;-0.30;99.90;;;;;;6270269;23;20457;-57
2023/02/05 04:47:47;;;;;;;4.97;2.40;;;-0.40;99.90;;;;;;6270656;23;20410;-54
2023/02/05 04:50:14;;;;;;;4.40;3.13;;;-0.40;99.90;;;;;;6270474;23;20435;-57
2023/02/05 04:52:41;;;;;;;4.33;2.43;;;-0.40;99.90;;;;;;6270382;23;20403;-56
2023/02/05 04:55:09;;;;;;;2.80;1.60;;;-0.40;99.90;;;;;;6271768;23;20438;-55
2023/02/05 04:57:37;;;;;;;4.03;2.20;;;-0.30;99.90;;;;;;6272482;23;20399;-54
2023/02/05 05:00:05;;;;;;;4.40;2.17;;;-0.30;99.90;;;;;;6272461;23;20442;-54
2023/02/05 05:02:32;;;;;;;2.33;1.90;;;-0.30;99.90;;;;;;6272210;23;20461;-54
2023/02/05 05:04:58;;;;;;;2.30;1.70;;;-0.30;99.90;;;;;;6272411;23;20474;-53
2023/02/05 05:07:26;;;;;;;3.03;1.60;;;-0.30;99.90;;;;;;6272545;23;20403;-53
2023/02/05 05:09:53;;;;;;;4.07;2.50;;;-0.30;99.90;;;;;;6272506;23;20403;-53
2023/02/05 05:12:21;;;;;;;1.97;1.30;;;-0.30;99.90;;;;;;6271926;23;20407;-54
2023/02/05 05:14:48;;;;;;;2.50;1.63;;;-0.30;99.90;;;;;;6271991;23;20487;-58
2023/02/05 05:17:17;;;;;;;1.87;1.47;;;-0.30;99.90;;;;;;6272176;23;20399;-54
2023/02/05 05:19:44;;;;;;;2.10;1.90;;;-0.20;99.90;;;;;;6271976;23;20438;-55
2023/02/05 05:22:10;;;;;;;10.83;2.20;;;-0.30;99.90;;;;;;6272188;23;20399;-54
2023/02/05 05:24:37;;;;;;;3.90;1.67;;;-0.30;99.90;;;;;;6271645;23;20387;-52
2023/02/05 05:27:04;;;;;;;4.53;2.53;;;-0.30;99.90;;;;;;6271877;23;20399;-55
2023/02/05 05:29:46;;;;;;;4.63;2.20;;;-0.30;99.90;;;;;;6271440;23;20402;-52
2023/02/05 05:32:13;;;;;;;2.70;2.20;;;-0.20;99.90;;;;;;6271952;23;20390;-53
2023/02/05 05:34:41;;;;;;;3.33;2.03;;;-0.20;99.90;;;;;;6272085;23;20379;-55
2023/02/05 05:37:08;;;;;;;2.73;2.20;;;-0.20;99.90;;;;;;6271803;23;20441;-56
2023/02/05 05:45:05;;;;;;;3.23;2.23;;;-0.20;99.90;;;;;;6272199;23;20390;-54
2023/02/05 05:47:32;;;;;;;3.40;2.00;;;-0.30;99.90;;;;;;6272001;23;20398;-57
2023/02/05 05:49:59;;;;;;;4.03;1.90;;;-0.30;99.90;;;;;;6271911;23;20399;-54
2023/02/05 05:52:26;;;;;;;1.43;1.27;;;-0.30;99.90;;;;;;6271476;23;20395;-56
2023/02/05 05:54:52;;;;;;;1.90;1.67;;;-0.30;99.90;;;;;;6271438;23;20406;-55
2023/02/05 05:57:19;;;;;;;2.90;1.57;;;-0.20;99.90;;;;;;6271560;23;20406;-58
2023/02/05 05:59:46;;;;;;;1.57;1.00;;;-0.20;99.90;;;;;;6271169;23;20443;-55
2023/02/05 06:02:14;;;;;;;5.10;2.53;;;-0.20;99.90;;;;;;6271407;23;20391;-57
2023/02/05 06:04:41;;;;;;;2.40;2.00;;;-0.20;99.90;;;;;;6271730;23;20399;-56
2023/02/05 06:07:08;;;;;;;3.00;1.30;;;-0.10;99.90;;;;;;6271572;23;20411;-55
2023/02/05 06:09:35;;;;;;;4.27;2.40;;;-0.20;99.90;;;;;;6271064;23;20403;-55
2023/02/05 06:12:03;;;;;;;3.00;2.53;;;-0.20;99.90;;;;;;6271336;23;20423;-59
2023/02/05 06:14:33;;;;;;;4.17;2.13;;;-0.20;99.90;;;;;;6271168;23;20384;-56
2023/02/05 06:17:00;;;;;;;4.90;2.73;;;-0.20;99.90;;;;;;6271344;23;20427;-57
2023/02/05 06:19:28;;;;;;;8.43;2.90;;;-0.20;99.90;;;;;;6271634;23;20399;-56
2023/02/05 06:21:55;;;;;;;3.40;1.93;;;-0.20;99.90;;;;;;6271485;23;20431;-59
2023/02/05 06:24:22;;;;;;;3.00;1.77;;;-0.20;99.90;;;;;;6271124;23;20411;-56
2023/02/05 06:26:52;;;;;;;2.40;1.53;;;-0.20;99.90;;;;;;6271446;23;20415;-56
2023/02/05 06:29:18;;;;;;;3.67;2.27;;;-0.20;99.90;;;;;;6271192;23;20406;-55
2023/02/05 06:31:45;;;;;;;1.77;1.37;;;-0.30;99.90;;;;;;6271759;23;20438;-59
2023/02/05 06:34:14;;;;;;;2.67;1.83;;;-0.20;99.90;;;;;;6271060;23;20421;-60
2023/02/05 06:36:42;;;;;;;2.87;1.77;;;-0.20;99.90;;;;;;6270831;23;20418;-58
2023/02/05 06:39:09;;;;;;;3.93;2.13;;;-0.10;99.90;;;;;;6270838;23;20426;-57
2023/02/05 06:41:36;;;;;;;1.70;1.60;;;-0.10;99.90;;;;;;6270608;23;20461;-57
2023/02/05 06:44:04;;;;;;;2.30;1.73;;;-0.10;99.90;;;;;;6270625;23;20410;-57
2023/02/05 06:46:30;;;;;;;4.30;2.40;;;-0.10;99.90;;;;;;6270723;23;20457;-58
2023/02/05 06:48:59;;;;;;;1.73;1.37;;;-0.10;99.90;;;;;;6271287;23;20419;-57
2023/02/05 06:51:29;;;;;;;6.50;2.37;;;-0.10;99.90;;;;;;6270685;23;20415;-56
2023/02/05 06:53:57;;;;;;;5.53;2.17;;;-0.10;99.90;;;;;;6271115;23;20378;-55
2023/02/05 06:56:24;;;;;;;5.67;2.90;;;-0.10;99.90;;;;;;6270751;23;20427;-58
2023/02/05 06:58:51;;;;;;;5.30;2.13;;;0.00;99.90;;;;;;6271285;23;20399;-58
2023/02/05 07:01:18;;;;;;;2.20;1.73;;;0.00;99.90;;;;;;6270915;23;20446;-55
2023/02/05 07:03:47;;;;;;;4.23;2.53;;;0.00;99.90;;;;;;6271558;23;20470;-57
2023/02/05 07:06:14;;;;;;;2.47;1.73;;;0.00;99.90;;;;;;6271284;23;20433;-56
2023/02/05 07:08:41;;;;;;;3.43;2.47;;;0.00;99.90;;;;;;6270925;23;20395;-57
2023/02/05 07:11:10;;;;;;;3.10;2.13;;;0.00;99.90;;;;;;6271422;23;20400;-58
2023/02/05 07:13:43;;;;;;;4.00;2.20;;;0.00;99.90;;;;;;6271190;23;20374;-56
2023/02/05 07:16:10;;;;;;;3.33;2.03;;;0.00;99.90;;;;;;6271161;23;20430;-57
2023/02/05 07:18:37;;;;;;;4.43;2.13;;;-0.20;99.90;;;;;;6271103;23;20388;-59
2023/02/05 07:21:05;;;;;;;6.90;2.90;;;-0.20;99.90;;;;;;6271360;23;20434;-57
2023/02/05 07:23:32;;;;;;;5.17;2.57;;;-0.30;99.90;;;;;;6271194;22;20414;-58
2023/02/05 07:26:06;;;;;;;5.03;1.67;;;-0.30;99.90;;;;;;6270864;23;20418;-58
2023/02/05 07:28:36;;;;;;;6.33;2.90;;;-0.30;99.90;;;;;;6271341;23;20376;-54
2023/02/05 07:31:05;;;;;;;2.13;1.87;;;-0.20;99.90;;;;;;6271445;23;20383;-59
2023/02/05 07:33:31;;;;;;;2.73;2.13;;;-0.30;99.90;;;;;;6270534;23;20409;-55
2023/02/05 07:36:01;;;;;;;5.40;4.50;;;-0.20;99.90;;;;;;6270609;22;20414;-55
2023/02/05 07:38:28;;;;;;;5.00;2.87;;;-0.20;99.90;;;;;;6270781;23;20399;-58
2023/02/05 07:40:55;;;;;;;5.30;2.60;;;-0.10;99.90;;;;;;6270691;23;20443;-58
2023/02/05 07:43:22;;;;;;;2.90;2.10;;;-0.10;99.90;;;;;;6270418;23;20407;-56
2023/02/05 07:45:56;;;;;;;4.70;2.60;;;0.00;99.90;;;;;;6270369;23;20403;-60
2023/02/05 07:48:23;;;;;;;2.77;1.80;;;0.10;99.90;;;;;;6270938;23;20395;-59
2023/02/05 07:50:49;;;;;;;3.30;2.00;;;0.20;99.90;;;;;;6270810;23;20387;-58
2023/02/05 07:53:16;;;;;;;4.27;2.17;;;0.30;99.90;;;;;;6270041;23;20401;-60
2023/02/05 07:55:43;;;;;;;3.77;2.17;;;0.30;99.90;;;;;;6270214;23;20434;-54
2023/02/05 07:58:10;;;;;;;3.57;2.00;;;0.40;99.90;;;;;;6269708;23;20407;-57
2023/02/05 08:00:39;;;;;;;5.20;1.67;;;0.50;99.90;;;;;;6269889;23;20530;-57
2023/02/05 08:03:07;;;;;;;5.37;1.67;;;0.50;99.90;;;;;;6271137;23;20427;-56
2023/02/05 08:05:34;;;;;;;4.23;2.53;;;0.60;99.90;;;;;;6270759;23;20414;-54
2023/02/05 08:08:00;;;;;;;2.50;1.60;;;0.60;99.90;;;;;;6271283;23;20953;-56
2023/02/05 08:10:27;;;;;;;7.90;2.57;;;0.60;99.90;;;;;;6271623;23;20400;-58
2023/02/05 08:12:54;;;;;;;2.80;2.53;;;0.60;99.90;;;;;;6270802;23;20903;-56
2023/02/05 08:15:21;;;;;;;7.27;3.53;;;0.60;99.90;;;;;;6271499;23;20391;-56
2023/02/05 08:17:49;;;;;;;4.47;2.40;;;0.70;99.90;;;;;;6270870;23;20435;-57
2023/02/05 08:20:21;;;;;;;3.83;3.23;;;0.60;99.90;;;;;;6270621;23;20443;-54
2023/02/05 08:22:47;;;;;;;7.43;3.37;;;0.70;99.90;;;;;;6270705;23;20436;-57
2023/02/05 08:25:15;;;;;;;5.00;2.97;;;0.70;99.90;;;;;;6271871;23;20403;-55
2023/02/05 08:27:43;;;;;;;8.27;2.67;;;0.70;99.90;;;;;;6271310;23;20423;-57
2023/02/05 08:30:13;;;;;;;3.90;3.20;;;0.80;99.90;;;;;;6272290;23;20383;-57
2023/02/05 08:32:40;;;;;;;3.40;2.20;;;0.80;99.90;;;;;;6273010;23;20407;-55
2023/02/05 08:35:07;;;;;;;4.77;2.27;;;0.80;99.90;;;;;;6273732;23;20402;-58
2023/02/05 08:37:36;;;;;;;4.60;2.83;;;0.80;99.90;;;;;;6273506;23;20426;-57
2023/02/05 08:40:03;;;;;;;6.60;3.60;;;0.80;99.90;;;;;;6273212;23;20378;-58
2023/02/05 08:42:30;;;;;;;4.87;2.93;;;0.90;99.90;;;;;;6272852;23;20485;-54
2023/02/05 08:44:58;;;;;;;3.60;2.77;;;1.00;99.90;;;;;;6272627;23;20418;-60
2023/02/05 08:47:26;;;;;;;7.17;2.67;;;1.00;99.90;;;;;;6271831;23;20415;-57
2023/02/05 08:49:53;;;;;;;3.60;2.50;;;1.00;99.90;;;;;;6272067;23;20379;-57
2023/02/05 08:52:20;;;;;;;6.50;2.90;;;1.10;99.90;;;;;;6271883;23;20426;-56
2023/02/05 08:54:48;;;;;;;5.03;3.40;;;1.20;99.90;;;;;;6272747;23;20406;-56
2023/02/05 08:57:15;;;;;;;6.43;2.93;;;1.20;99.90;;;;;;6272243;23;20431;-58
2023/02/05 08:59:43;;;;;;;7.47;3.20;;;1.20;99.90;;;;;;6272616;23;20407;-56
2023/02/05 09:02:13;;;;;;;5.40;2.93;;;1.20;99.90;;;;;;6272367;23;20427;-54
2023/02/05 09:04:40;;;;;;;3.40;2.20;;;1.30;99.90;;;;;;6272182;23;20372;-59
2023/02/05 09:07:07;;;;;;;4.60;2.83;;;1.40;99.90;;;;;;6272155;23;20403;-59
2023/02/05 09:09:35;;;;;;;5.77;2.57;;;1.40;99.90;;;;;;6271618;23;20396;-58
2023/02/05 09:12:04;;;;;;;7.30;3.10;;;1.50;99.90;;;;;;6272244;23;20399;-59
2023/02/05 09:14:35;;;;;;;10.63;3.90;;;1.40;99.90;;;;;;6271730;23;20375;-55
2023/02/05 09:17:02;;;;;;;9.80;3.20;;;1.40;99.90;;;;;;6272165;23;20372;-58
2023/02/05 09:19:30;;;;;;;16.63;3.93;;;1.40;99.90;;;;;;6271853;23;20459;-51
2023/02/05 09:21:57;;;;;;;4.97;3.47;;;1.40;99.90;;;;;;6271699;23;20434;-58
2023/02/05 09:24:24;;;;;;;6.93;2.90;;;1.40;99.90;;;;;;6272232;23;20399;-59
2023/02/05 09:26:51;;;;;;;4.03;2.70;;;1.40;99.90;;;;;;6272726;23;20415;-59
2023/02/05 09:29:19;;;;;;;4.93;3.50;;;1.30;99.90;;;;;;6272745;23;20399;-55
2023/02/05 09:31:46;;;;;;;5.03;3.33;;;1.30;99.90;;;;;;6272325;23;20493;-55
2023/02/05 09:34:14;;;;;;;11.40;3.63;;;1.30;99.90;;;;;;6272331;23;20427;-57
2023/02/05 09:36:41;;;;;;;3.17;2.50;;;1.30;99.90;;;;;;6272830;23;20435;-59
2023/02/05 09:39:09;;;;;;;4.73;3.33;;;1.40;99.90;;;;;;6271441;23;20439;-59
2023/02/05 09:41:41;;;;;;;5.13;2.50;;;1.40;99.90;;;;;;6270893;23;20446;-59
2023/02/05 09:44:17;;;;;;;4.90;2.33;;;1.40;99.90;;;;;;6272330;23;20431;-53
2023/02/05 09:46:54;;;;;;;6.70;3.63;;;1.50;99.90;;;;;;6271802;23;20367;-55
2023/02/05 09:49:26;;;;;;;8.63;5.17;;;1.50;99.90;;;;;;6271833;23;20382;-58
2023/02/05 09:51:58;;;;;;;2.87;2.57;;;1.60;99.90;;;;;;6271627;23;20452;-57
2023/02/05 09:54:28;;;;;;;5.07;3.00;;;1.70;99.90;;;;;;6271277;23;20360;-56
2023/02/05 09:56:58;;;;;;;6.60;3.20;;;1.80;99.90;;;;;;6271418;23;20406;-56
2023/02/05 09:59:28;;;;;;;4.77;2.60;;;1.80;99.90;;;;;;6271315;23;20427;-57
2023/02/05 10:01:58;;;;;;;7.63;2.70;;;1.80;99.90;;;;;;6270637;23;20431;-59
2023/02/05 10:04:26;;;;;;;3.30;1.93;;;1.90;99.90;;;;;;6271173;23;20410;-57
2023/02/05 10:07:16;;;;;;;3.50;2.13;;;1.90;99.90;;;;;;6271209;23;20725;-56
2023/02/05 10:10:14;;;;;;;13.30;2.27;;;1.90;99.90;;;;;;6272177;22;20427;-56
2023/02/05 10:12:59;;;;;;;3.30;2.70;;;2.00;99.90;;;;;;6272377;23;20372;-58
2023/02/05 10:15:37;;;;;;;5.50;3.00;;;2.10;99.90;;;;;;6272188;23;20403;-58
2023/02/05 10:18:15;;;;;;;2.70;2.50;;;2.20;99.90;;;;;;6271857;23;20411;-57
2023/02/05 10:20:58;;;;;;;3.03;1.97;;;2.40;99.90;;;;;;6271224;23;20383;-52
2023/02/05 10:23:52;;;;;;;4.40;3.10;;;2.80;99.90;;;;;;6271288;23;20407;-56
2023/02/05 10:26:22;;;;;;;3.33;2.20;;;3.40;99.90;;;;;;6271002;23;20403;-57
2023/02/05 10:29:07;;;;;;;4.93;2.87;;;4.00;99.90;;;;;;6270518;23;20438;-60
2023/02/05 10:31:42;;;;;;;7.30;3.87;;;4.50;99.90;;;;;;6271091;23;20379;-58
2023/02/05 10:34:29;;;;;;;6.63;2.43;;;4.60;99.90;;;;;;6270964;23;20456;-53
2023/02/05 10:36:56;;;;;;;4.90;2.70;;;4.40;99.90;;;;;;6271111;23;20390;-59
2023/02/05 10:39:28;;;;;;;7.93;4.37;;;4.20;99.90;;;;;;6270485;23;20423;-57
2023/02/05 10:42:01;;;;;;;13.00;4.50;;;4.00;99.90;;;;;;6271428;23;20426;-56
2023/02/05 10:44:32;;;;;;;2.30;1.47;;;3.80;99.90;;;;;;6271105;23;20434;-58
2023/02/05 10:47:06;;;;;;;2.50;1.63;;;3.70;99.90;;;;;;6271610;23;20392;-54
2023/02/05 10:49:48;;;;;;;3.47;2.23;;;3.60;99.90;;;;;;6271514;23;20455;-59
2023/02/05 10:52:16;;;;;;;3.97;1.93;;;3.40;99.90;;;;;;6270895;23;20403;-58
2023/02/05 10:54:45;;;;;;;5.47;2.43;;;3.30;99.90;;;;;;6271041;23;20411;-58
2023/02/05 10:57:14;;;;;;;4.87;2.03;;;3.20;99.90;;;;;;6271235;23;20407;-55
2023/02/05 10:59:51;;;;;;;3.47;2.00;;;3.00;99.90;;;;;;6271443;22;20408;-56
2023/02/05 11:02:19;;;;;;;3.47;1.73;;;3.00;99.90;;;;;;6271210;23;20975;-59
2023/02/05 11:04:50;;;;;;;10.40;2.13;;;3.10;99.90;;;;;;6271338;23;20382;-60
2023/02/05 11:07:24;;;;;;;9.20;2.13;;;3.30;99.90;;;;;;6271294;23;20399;-60
2023/02/05 11:09:51;;;;;;;2.40;1.50;;;3.50;99.90;;;;;;6271025;23;20422;-56
2023/02/05 11:12:26;;;;;;;2.77;1.50;;;3.60;99.90;;;;;;6270979;23;20398;-56
2023/02/05 11:14:57;;;;;;;2.23;1.47;;;3.70;99.90;;;;;;6271127;23;20430;-58
2023/02/05 11:17:29;;;;;;;6.23;1.97;;;3.80;99.90;;;;;;6271018;23;20388;-57
2023/02/05 11:20:01;;;;;;;2.37;1.70;;;3.70;99.90;;;;;;6270939;23;20423;-56
2023/02/05 11:22:30;;;;;;;2.57;1.97;;;3.60;99.90;;;;;;6271149;23;20430;-59
2023/02/05 11:25:12;;;;;;;2.77;1.70;;;3.50;99.90;;;;;;6271655;23;20407;-56
2023/02/05 11:27:39;;;;;;;3.57;1.87;;;3.50;99.90;;;;;;6271179;23;20510;-54
2023/02/05 11:30:25;;;;;;;1.60;1.20;;;3.50;99.90;;;;;;6270815;23;20718;-56
2023/02/05 11:32:52;;;;;;;3.00;2.17;;;3.50;99.90;;;;;;6271227;23;20392;-53
2023/02/05 11:35:24;;;;;;;2.43;1.57;;;3.50;99.90;;;;;;6270620;23;20410;-57
2023/02/05 11:38:07;;;;;;;6.07;2.30;;;3.50;99.90;;;;;;6270809;23;20376;-60
2023/02/05 11:40:35;;;;;;;5.00;2.20;;;3.50;99.90;;;;;;6271127;23;20407;-57
2023/02/05 11:43:06;;;;;;;6.73;3.30;;;3.50;99.90;;;;;;6271234;23;20434;-55
2023/02/05 11:45:38;;;;;;;2.53;1.60;;;3.60;99.90;;;;;;6271025;23;20407;-58
2023/02/05 11:48:21;;;;;;;5.33;1.63;;;3.70;99.90;;;;;;6271369;23;20375;-57
2023/02/05 11:50:49;;;;;;;2.60;1.50;;;3.70;99.90;;;;;;6271448;23;20387;-55
2023/02/05 11:53:19;;;;;;;3.33;1.60;;;3.70;99.90;;;;;;6270621;23;20383;-56
2023/02/05 11:55:53;;;;;;;1.40;1.30;;;3.70;99.90;;;;;;6271137;23;20399;-57
2023/02/05 11:58:23;;;;;;;2.97;2.30;;;3.60;99.90;;;;;;6271247;23;20404;-57
2023/02/05 12:00:56;;;;;;;2.00;1.47;;;3.60;99.90;;;;;;6271016;23;20403;-60
2023/02/05 12:03:26;;;;;;;3.00;1.70;;;3.60;99.90;;;;;;6271687;23;20439;-57
2023/02/05 12:05:59;;;;;;;4.63;1.70;;;3.60;99.90;;;;;;6272504;23;20442;-57
2023/02/05 12:08:33;;;;;;;2.43;1.80;;;3.60;99.90;;;;;;6273196;23;20387;-54
2023/02/05 12:11:12;;;;;;;6.20;2.13;;;3.60;99.90;;;;;;6273501;23;20379;-58
2023/02/05 12:13:50;;;;;;;3.47;1.77;;;3.60;99.90;;;;;;6273102;23;20383;-59
2023/02/05 12:16:28;;;;;;;2.30;1.93;;;3.60;99.90;;;;;;6272725;23;20379;-57
2023/02/05 12:19:06;;;;;;;2.80;2.10;;;3.60;99.90;;;;;;6273062;23;20397;-56
2023/02/05 12:21:47;;;;;;;2.77;1.60;;;3.50;99.90;;;;;;6273496;23;20427;-57
2023/02/05 12:24:46;;;;;;;3.33;1.77;;;3.50;99.90;;;;;;6273523;23;20431;-56
2023/02/05 12:27:24;;;;;;;2.63;2.13;;;3.60;99.90;;;;;;6272821;23;20380;-55
2023/02/05 12:30:08;;;;;;;2.70;1.57;;;3.60;99.90;;;;;;6272651;23;20430;-59
2023/02/05 12:32:44;;;;;;;2.97;1.50;;;3.70;99.90;;;;;;6272374;23;20384;-58
2023/02/05 12:35:25;;;;;;;1.50;1.23;;;3.70;99.90;;;;;;6271535;23;20410;-58
2023/02/05 12:38:01;;;;;;;3.50;2.23;;;3.80;99.90;;;;;;6271087;23;20383;-58
2023/02/05 12:40:43;;;;;;;8.07;2.77;;;3.70;99.90;;;;;;6271333;23;20425;-59
2023/02/05 12:43:29;;;;;;;3.93;2.10;;;3.70;99.90;;;;;;6271289;23;20438;-55
2023/02/05 12:46:04;;;;;;;5.80;2.57;;;3.60;99.90;;;;;;6271776;23;20406;-58
2023/02/05 12:48:47;;;;;;;6.97;2.80;;;3.60;99.90;;;;;;6271184;23;20390;-58
2023/02/05 12:51:27;;;;;;;5.33;1.87;;;3.70;99.90;;;;;;6271585;23;20399;-57
2023/02/05 12:54:20;;;;;;;4.10;1.83;;;3.70;99.90;;;;;;6271147;23;20391;-54
2023/02/05 12:56:58;;;;;;;3.03;1.30;;;3.70;99.90;;;;;;6269799;23;20811;-58
2023/02/05 12:59:35;;;;;;;13.30;1.90;;;3.60;99.90;;;;;;6271146;23;20406;-58
2023/02/05 13:02:10;;;;;;;2.90;1.80;;;3.60;99.90;;;;;;6270737;23;20430;-55
2023/02/05 13:04:44;;;;;;;3.50;1.90;;;3.50;99.90;;;;;;6271680;23;20423;-57
2023/02/05 13:07:19;;;;;;;3.10;1.93;;;3.70;99.90;;;;;;6271258;23;20391;-58
2023/02/05 13:09:50;;;;;;;6.70;2.20;;;3.50;99.90;;;;;;6270970;23;20438;-55
2023/02/05 13:12:22;;;;;;;3.73;2.10;;;3.50;99.90;;;;;;6271093;23;20380;-55
2023/02/05 13:14:57;;;;;;;2.33;1.77;;;3.60;99.90;;;;;;6271030;23;20462;-55
2023/02/05 13:17:26;;;;;;;2.10;1.70;;;3.70;99.90;;;;;;6271279;23;20410;-58